LiveATC.Net - Listen to live air traffic control over the Internet!


ICAO: KMQJ  IATA: MQJ   Airport: Indianapolis Regional Airport
City: Indianapolis   State/Province: Indiana
Country: United States   Continent: North America
KMQJ METAR Weather: KMQJ 260627Z AUTO 29004KT 10SM CLR 13/09 A3014 RMK AO1
KMQJ Flight Activity (FlightAware)
KMQJ Airport Info   (AirNav) (iFlightPlanner)
KMQJ VFR Sectional Chart   (iFlightPlanner) 
KMQJ IFR Low Chart   (iFlightPlanner) 
KMQJ CTAF (Air Race Classic)
Feed Status: DOWN
Last heard on: 2017-06-22 10:34:03 (3 days 20 hours 21 minutes ago)
KMQJ CTAF (Air Race Classic) Audio Archives
FacilityFrequency
Indy Regional CTAF122.975


NOTICE

Unauthorized use prohibited. See LiveATC.net Terms of Service


Find LiveATC Audio Streams


Airport/ARTCC Code

Frequency Search
(e.g., 124.400, 128.75)
Site-wide search
 


Browse LiveATC Feeds
LiveATC Coverage Map
Top 50 LiveATC Feeds
Bad Weather Areas

LiveATC FAQ
Offer a LiveATC Feed
Contact LiveATC.net
Press Inquiries

LiveATC on iPhone
LiveATC on Android

Windows Phone
Windows 8/10

LiveATC Mobile
(Mobile browser)

ATC Audio Archives
Interesting Recordings

LiveATC Forums


Home Page
About LiveATC.net
Make a Donation
LiveATC Store

Terms of Use
Privacy Policy

Canadian Air Freqs

AIRMETs/SIGMETs

FAA Airport Status
Nat'l Airspace Status
Arrival Demand Charts


Server Software By:
Icecast.org
Liquidsoap